Terminal Aerodrome Forecast
Issued by NWS Memphis, TN

Home | Current Version | Previous Version | Text Only | Print | Product List | Glossary On
Versions: 1 2 3 4 5 6 7 8 9 10 11 12 13
000
FTUS44 KMEG 252340
TAFJBR
TAF
KJBR 252340Z 2600/2624 18012G18KT P6SM SCT250
     FM260900 18012G18KT P6SM BKN025
     FM261200 18012G18KT P6SM VCSH OVC015
     FM261500 18017G25KT P6SM BKN015
     FM262100 18017G25KT P6SM VCTS BKN025CB
     FM262300 19020G28KT 3SM TSRA BR SCT025 BKN035CB
      TEMPO 2623/2624 27025G35KT 1SM +TSRA BR BKN025CB=

USA.gov is the U.S. government's official web portal to all federal, state and local government web resources and services.